sensor_id;sensor_type;location;lat;lon;timestamp;P1;durP1;ratioP1;P2;durP2;ratioP2
23282;SDS011;11810;51.178;3.878;2022-12-05T00:02:11;76.78;;;36.65;;
23282;SDS011;11810;51.178;3.878;2022-12-05T00:04:37;74.30;;;38.40;;
23282;SDS011;11810;51.178;3.878;2022-12-05T00:07:11;72.95;;;35.15;;
23282;SDS011;11810;51.178;3.878;2022-12-05T00:11:13;64.72;;;32.80;;
23282;SDS011;11810;51.178;3.878;2022-12-05T00:14:12;67.95;;;34.10;;
23282;SDS011;11810;51.178;3.878;2022-12-05T00:16:39;69.15;;;33.25;;
23282;SDS011;11810;51.178;3.878;2022-12-05T00:19:11;66.50;;;32.75;;
23282;SDS011;11810;51.178;3.878;2022-12-05T00:21:39;64.13;;;32.17;;
23282;SDS011;11810;51.178;3.878;2022-12-05T00:24:06;67.45;;;33.35;;
23282;SDS011;11810;51.178;3.878;2022-12-05T00:26:35;63.03;;;32.95;;
23282;SDS011;11810;51.178;3.878;2022-12-05T00:29:01;63.20;;;32.88;;
23282;SDS011;11810;51.178;3.878;2022-12-05T00:31:27;63.65;;;31.67;;
23282;SDS011;11810;51.178;3.878;2022-12-05T00:33:53;64.50;;;32.20;;
23282;SDS011;11810;51.178;3.878;2022-12-05T00:40:15;67.35;;;32.83;;
23282;SDS011;11810;51.178;3.878;2022-12-05T00:42:41;62.33;;;33.03;;
23282;SDS011;11810;51.178;3.878;2022-12-05T00:45:07;66.30;;;32.85;;
23282;SDS011;11810;51.178;3.878;2022-12-05T00:47:36;67.65;;;33.58;;
23282;SDS011;11810;51.178;3.878;2022-12-05T00:50:03;63.53;;;32.67;;
23282;SDS011;11810;51.178;3.878;2022-12-05T00:52:29;63.42;;;32.08;;
23282;SDS011;11810;51.178;3.878;2022-12-05T00:57:16;67.40;;;31.67;;
23282;SDS011;11810;51.178;3.878;2022-12-05T00:59:42;61.72;;;31.13;;
23282;SDS011;11810;51.178;3.878;2022-12-05T01:02:08;62.30;;;31.27;;
23282;SDS011;11810;51.178;3.878;2022-12-05T01:04:34;57.92;;;31.55;;
23282;SDS011;11810;51.178;3.878;2022-12-05T01:07:01;59.58;;;31.88;;
23282;SDS011;11810;51.178;3.878;2022-12-05T01:09:27;57.80;;;31.13;;
23282;SDS011;11810;51.178;3.878;2022-12-05T01:12:19;57.35;;;30.20;;
23282;SDS011;11810;51.178;3.878;2022-12-05T01:14:45;53.88;;;30.23;;
23282;SDS011;11810;51.178;3.878;2022-12-05T01:17:11;57.90;;;30.65;;
23282;SDS011;11810;51.178;3.878;2022-12-05T01:19:37;58.72;;;30.65;;
23282;SDS011;11810;51.178;3.878;2022-12-05T01:22:03;58.63;;;29.92;;
23282;SDS011;11810;51.178;3.878;2022-12-05T01:24:29;59.67;;;30.23;;
23282;SDS011;11810;51.178;3.878;2022-12-05T01:26:55;55.08;;;28.05;;
23282;SDS011;11810;51.178;3.878;2022-12-05T01:29:22;56.97;;;29.48;;
23282;SDS011;11810;51.178;3.878;2022-12-05T01:31:49;60.03;;;30.38;;
23282;SDS011;11810;51.178;3.878;2022-12-05T01:34:16;56.55;;;28.42;;
23282;SDS011;11810;51.178;3.878;2022-12-05T01:36:42;57.85;;;28.20;;
23282;SDS011;11810;51.178;3.878;2022-12-05T01:39:09;56.17;;;30.45;;
23282;SDS011;11810;51.178;3.878;2022-12-05T01:41:41;55.83;;;28.15;;
23282;SDS011;11810;51.178;3.878;2022-12-05T01:46:36;58.28;;;30.15;;
23282;SDS011;11810;51.178;3.878;2022-12-05T01:49:24;63.70;;;30.48;;
23282;SDS011;11810;51.178;3.878;2022-12-05T01:51:58;58.97;;;29.02;;
23282;SDS011;11810;51.178;3.878;2022-12-05T01:54:27;54.53;;;28.45;;
23282;SDS011;11810;51.178;3.878;2022-12-05T01:56:59;55.05;;;28.70;;
23282;SDS011;11810;51.178;3.878;2022-12-05T02:00:26;56.08;;;29.55;;
23282;SDS011;11810;51.178;3.878;2022-12-05T02:04:25;54.97;;;27.92;;
23282;SDS011;11810;51.178;3.878;2022-12-05T02:08:27;57.75;;;28.08;;
23282;SDS011;11810;51.178;3.878;2022-12-05T02:10:54;54.97;;;27.92;;
23282;SDS011;11810;51.178;3.878;2022-12-05T02:18:38;58.17;;;29.13;;
23282;SDS011;11810;51.178;3.878;2022-12-05T02:30:53;57.35;;;30.48;;
23282;SDS011;11810;51.178;3.878;2022-12-05T02:33:27;63.45;;;28.83;;
23282;SDS011;11810;51.178;3.878;2022-12-05T02:36:26;65.53;;;31.23;;
23282;SDS011;11810;51.178;3.878;2022-12-05T02:39:22;59.40;;;30.83;;
23282;SDS011;11810;51.178;3.878;2022-12-05T02:42:09;60.38;;;29.45;;
23282;SDS011;11810;51.178;3.878;2022-12-05T02:44:45;60.60;;;30.95;;
23282;SDS011;11810;51.178;3.878;2022-12-05T02:47:17;65.35;;;31.38;;
23282;SDS011;11810;51.178;3.878;2022-12-05T02:49:47;62.47;;;30.45;;
23282;SDS011;11810;51.178;3.878;2022-12-05T02:52:16;69.00;;;32.08;;
23282;SDS011;11810;51.178;3.878;2022-12-05T02:54:43;66.10;;;31.92;;
23282;SDS011;11810;51.178;3.878;2022-12-05T02:57:12;66.63;;;31.42;;
23282;SDS011;11810;51.178;3.878;2022-12-05T02:59:39;64.53;;;30.73;;
23282;SDS011;11810;51.178;3.878;2022-12-05T03:02:19;61.97;;;31.35;;
23282;SDS011;11810;51.178;3.878;2022-12-05T03:04:55;72.95;;;32.75;;
23282;SDS011;11810;51.178;3.878;2022-12-05T03:09:37;74.95;;;35.33;;
23282;SDS011;11810;51.178;3.878;2022-12-05T03:12:15;65.60;;;32.63;;
23282;SDS011;11810;51.178;3.878;2022-12-05T03:17:24;64.45;;;32.47;;
23282;SDS011;11810;51.178;3.878;2022-12-05T03:20:56;75.70;;;32.42;;
23282;SDS011;11810;51.178;3.878;2022-12-05T03:23:33;67.28;;;32.00;;
23282;SDS011;11810;51.178;3.878;2022-12-05T03:28:53;72.63;;;32.83;;
23282;SDS011;11810;51.178;3.878;2022-12-05T03:32:36;75.40;;;33.03;;
23282;SDS011;11810;51.178;3.878;2022-12-05T03:35:21;81.90;;;34.38;;
23282;SDS011;11810;51.178;3.878;2022-12-05T03:38:23;74.38;;;33.70;;
23282;SDS011;11810;51.178;3.878;2022-12-05T03:41:06;72.65;;;33.67;;
23282;SDS011;11810;51.178;3.878;2022-12-05T03:46:29;73.93;;;31.40;;
23282;SDS011;11810;51.178;3.878;2022-12-05T03:51:57;70.88;;;33.53;;
23282;SDS011;11810;51.178;3.878;2022-12-05T03:54:41;73.82;;;33.35;;
23282;SDS011;11810;51.178;3.878;2022-12-05T03:57:12;80.45;;;34.40;;
23282;SDS011;11810;51.178;3.878;2022-12-05T03:59:48;71.75;;;34.30;;
23282;SDS011;11810;51.178;3.878;2022-12-05T04:05:00;73.20;;;34.47;;
23282;SDS011;11810;51.178;3.878;2022-12-05T04:07:33;85.32;;;36.35;;
23282;SDS011;11810;51.178;3.878;2022-12-05T04:10:02;82.82;;;39.25;;
23282;SDS011;11810;51.178;3.878;2022-12-05T04:12:37;81.32;;;37.17;;
23282;SDS011;11810;51.178;3.878;2022-12-05T04:15:12;80.57;;;36.60;;
23282;SDS011;11810;51.178;3.878;2022-12-05T04:17:57;84.15;;;36.20;;
23282;SDS011;11810;51.178;3.878;2022-12-05T04:20:31;75.93;;;35.20;;
23282;SDS011;11810;51.178;3.878;2022-12-05T04:23:21;78.25;;;36.03;;
23282;SDS011;11810;51.178;3.878;2022-12-05T04:25:58;80.55;;;35.00;;
23282;SDS011;11810;51.178;3.878;2022-12-05T04:30:01;75.15;;;34.25;;
23282;SDS011;11810;51.178;3.878;2022-12-05T04:35:58;81.75;;;35.13;;
23282;SDS011;11810;51.178;3.878;2022-12-05T04:38:20;77.63;;;35.05;;
23282;SDS011;11810;51.178;3.878;2022-12-05T04:40:56;83.43;;;35.33;;
23282;SDS011;11810;51.178;3.878;2022-12-05T04:43:27;80.72;;;37.50;;
23282;SDS011;11810;51.178;3.878;2022-12-05T04:45:57;82.65;;;34.75;;
23282;SDS011;11810;51.178;3.878;2022-12-05T04:48:25;82.47;;;36.10;;
23282;SDS011;11810;51.178;3.878;2022-12-05T04:50:52;89.35;;;35.95;;
23282;SDS011;11810;51.178;3.878;2022-12-05T04:53:20;83.80;;;36.35;;
23282;SDS011;11810;51.178;3.878;2022-12-05T04:55:49;79.65;;;35.33;;
23282;SDS011;11810;51.178;3.878;2022-12-05T04:58:19;77.65;;;35.72;;
23282;SDS011;11810;51.178;3.878;2022-12-05T05:06:23;78.03;;;36.75;;
23282;SDS011;11810;51.178;3.878;2022-12-05T05:08:54;83.95;;;37.25;;
23282;SDS011;11810;51.178;3.878;2022-12-05T05:11:23;81.50;;;38.08;;
23282;SDS011;11810;51.178;3.878;2022-12-05T05:13:51;90.60;;;39.42;;
23282;SDS011;11810;51.178;3.878;2022-12-05T05:17:46;81.93;;;37.22;;
23282;SDS011;11810;51.178;3.878;2022-12-05T05:20:13;83.18;;;37.33;;
23282;SDS011;11810;51.178;3.878;2022-12-05T05:22:51;83.30;;;37.97;;
23282;SDS011;11810;51.178;3.878;2022-12-05T05:25:22;95.75;;;37.85;;
23282;SDS011;11810;51.178;3.878;2022-12-05T05:27:50;86.75;;;38.63;;
23282;SDS011;11810;51.178;3.878;2022-12-05T05:30:18;84.63;;;38.25;;
23282;SDS011;11810;51.178;3.878;2022-12-05T05:32:45;82.13;;;38.28;;
23282;SDS011;11810;51.178;3.878;2022-12-05T05:35:11;80.47;;;37.88;;
23282;SDS011;11810;51.178;3.878;2022-12-05T05:37:38;91.07;;;39.28;;
23282;SDS011;11810;51.178;3.878;2022-12-05T05:40:05;87.03;;;40.28;;
23282;SDS011;11810;51.178;3.878;2022-12-05T05:42:32;102.75;;;41.47;;
23282;SDS011;11810;51.178;3.878;2022-12-05T05:44:58;92.88;;;41.08;;
23282;SDS011;11810;51.178;3.878;2022-12-05T05:47:24;89.20;;;41.13;;
23282;SDS011;11810;51.178;3.878;2022-12-05T05:51:51;89.18;;;41.33;;
23282;SDS011;11810;51.178;3.878;2022-12-05T05:54:17;97.30;;;41.75;;
23282;SDS011;11810;51.178;3.878;2022-12-05T05:56:43;101.25;;;43.67;;
23282;SDS011;11810;51.178;3.878;2022-12-05T05:59:09;90.20;;;39.92;;
23282;SDS011;11810;51.178;3.878;2022-12-05T06:01:35;106.65;;;44.72;;
23282;SDS011;11810;51.178;3.878;2022-12-05T06:04:01;96.80;;;43.40;;
23282;SDS011;11810;51.178;3.878;2022-12-05T06:06:27;100.82;;;44.13;;
23282;SDS011;11810;51.178;3.878;2022-12-05T06:08:53;95.38;;;40.88;;
23282;SDS011;11810;51.178;3.878;2022-12-05T06:11:21;102.88;;;43.00;;
23282;SDS011;11810;51.178;3.878;2022-12-05T06:13:48;97.30;;;42.20;;
23282;SDS011;11810;51.178;3.878;2022-12-05T06:16:14;98.38;;;41.13;;
23282;SDS011;11810;51.178;3.878;2022-12-05T06:18:41;93.53;;;42.08;;
23282;SDS011;11810;51.178;3.878;2022-12-05T06:21:09;106.07;;;43.33;;
23282;SDS011;11810;51.178;3.878;2022-12-05T06:23:35;100.55;;;42.25;;
23282;SDS011;11810;51.178;3.878;2022-12-05T06:26:03;100.53;;;40.95;;
23282;SDS011;11810;51.178;3.878;2022-12-05T06:29:56;91.55;;;40.90;;
23282;SDS011;11810;51.178;3.878;2022-12-05T06:32:22;102.50;;;41.50;;
23282;SDS011;11810;51.178;3.878;2022-12-05T06:34:48;93.47;;;41.05;;
23282;SDS011;11810;51.178;3.878;2022-12-05T06:37:14;88.72;;;40.15;;
23282;SDS011;11810;51.178;3.878;2022-12-05T06:39:40;89.28;;;40.58;;
23282;SDS011;11810;51.178;3.878;2022-12-05T06:42:06;91.13;;;38.83;;
23282;SDS011;11810;51.178;3.878;2022-12-05T06:44:32;89.30;;;40.35;;
23282;SDS011;11810;51.178;3.878;2022-12-05T06:46:58;91.28;;;40.65;;
23282;SDS011;11810;51.178;3.878;2022-12-05T06:49:24;99.00;;;40.88;;
23282;SDS011;11810;51.178;3.878;2022-12-05T06:52:58;92.60;;;40.40;;
23282;SDS011;11810;51.178;3.878;2022-12-05T06:55:24;98.75;;;40.75;;
23282;SDS011;11810;51.178;3.878;2022-12-05T06:57:50;87.18;;;38.92;;
23282;SDS011;11810;51.178;3.878;2022-12-05T07:00:16;81.90;;;37.15;;
23282;SDS011;11810;51.178;3.878;2022-12-05T07:05:26;93.20;;;38.90;;
23282;SDS011;11810;51.178;3.878;2022-12-05T07:07:59;84.88;;;37.55;;
23282;SDS011;11810;51.178;3.878;2022-12-05T07:10:25;88.78;;;37.50;;
23282;SDS011;11810;51.178;3.878;2022-12-05T07:12:50;85.90;;;38.08;;
23282;SDS011;11810;51.178;3.878;2022-12-05T07:15:16;87.28;;;38.95;;
23282;SDS011;11810;51.178;3.878;2022-12-05T07:17:42;91.93;;;39.85;;
23282;SDS011;11810;51.178;3.878;2022-12-05T07:20:08;83.13;;;38.33;;
23282;SDS011;11810;51.178;3.878;2022-12-05T07:22:36;84.80;;;38.60;;
23282;SDS011;11810;51.178;3.878;2022-12-05T07:25:03;93.32;;;39.92;;
23282;SDS011;11810;51.178;3.878;2022-12-05T07:27:29;89.57;;;38.72;;
23282;SDS011;11810;51.178;3.878;2022-12-05T07:29:55;87.38;;;37.45;;
23282;SDS011;11810;51.178;3.878;2022-12-05T07:32:21;86.82;;;39.33;;
23282;SDS011;11810;51.178;3.878;2022-12-05T07:34:47;78.45;;;37.70;;
23282;SDS011;11810;51.178;3.878;2022-12-05T07:39:03;88.50;;;37.35;;
23282;SDS011;11810;51.178;3.878;2022-12-05T07:41:30;82.68;;;37.65;;
23282;SDS011;11810;51.178;3.878;2022-12-05T07:45:03;75.93;;;35.75;;
23282;SDS011;11810;51.178;3.878;2022-12-05T07:47:30;78.75;;;37.38;;
23282;SDS011;11810;51.178;3.878;2022-12-05T07:49:56;82.03;;;37.10;;
23282;SDS011;11810;51.178;3.878;2022-12-05T07:52:22;78.57;;;36.95;;
23282;SDS011;11810;51.178;3.878;2022-12-05T07:54:48;82.75;;;36.70;;
23282;SDS011;11810;51.178;3.878;2022-12-05T07:57:14;80.95;;;37.75;;
23282;SDS011;11810;51.178;3.878;2022-12-05T07:59:39;76.57;;;36.60;;
23282;SDS011;11810;51.178;3.878;2022-12-05T08:02:07;76.15;;;35.67;;
23282;SDS011;11810;51.178;3.878;2022-12-05T08:04:33;76.55;;;36.28;;
23282;SDS011;11810;51.178;3.878;2022-12-05T08:06:59;80.88;;;38.42;;
23282;SDS011;11810;51.178;3.878;2022-12-05T08:09:25;70.75;;;34.88;;
23282;SDS011;11810;51.178;3.878;2022-12-05T08:11:51;73.57;;;34.58;;
23282;SDS011;11810;51.178;3.878;2022-12-05T08:14:17;73.10;;;35.15;;
23282;SDS011;11810;51.178;3.878;2022-12-05T08:16:43;70.10;;;34.63;;
23282;SDS011;11810;51.178;3.878;2022-12-05T08:19:10;75.97;;;35.70;;
23282;SDS011;11810;51.178;3.878;2022-12-05T08:21:37;79.15;;;35.38;;
23282;SDS011;11810;51.178;3.878;2022-12-05T08:24:04;70.38;;;35.33;;
23282;SDS011;11810;51.178;3.878;2022-12-05T08:26:32;65.90;;;34.05;;
23282;SDS011;11810;51.178;3.878;2022-12-05T08:31:33;74.90;;;37.15;;
23282;SDS011;11810;51.178;3.878;2022-12-05T08:34:04;70.85;;;36.00;;
23282;SDS011;11810;51.178;3.878;2022-12-05T08:36:29;72.13;;;35.50;;
23282;SDS011;11810;51.178;3.878;2022-12-05T08:39:00;77.13;;;35.92;;
23282;SDS011;11810;51.178;3.878;2022-12-05T08:41:28;72.25;;;35.63;;
23282;SDS011;11810;51.178;3.878;2022-12-05T08:43:55;82.43;;;35.78;;
23282;SDS011;11810;51.178;3.878;2022-12-05T08:46:23;78.70;;;37.63;;
23282;SDS011;11810;51.178;3.878;2022-12-05T08:48:49;79.28;;;37.90;;
23282;SDS011;11810;51.178;3.878;2022-12-05T08:51:15;83.82;;;37.78;;
23282;SDS011;11810;51.178;3.878;2022-12-05T08:53:41;81.32;;;35.45;;
23282;SDS011;11810;51.178;3.878;2022-12-05T08:56:07;73.85;;;35.05;;
23282;SDS011;11810;51.178;3.878;2022-12-05T08:58:35;72.80;;;36.00;;
23282;SDS011;11810;51.178;3.878;2022-12-05T09:01:04;85.60;;;37.15;;
23282;SDS011;11810;51.178;3.878;2022-12-05T09:03:37;80.60;;;37.55;;
23282;SDS011;11810;51.178;3.878;2022-12-05T09:06:14;85.80;;;35.72;;
23282;SDS011;11810;51.178;3.878;2022-12-05T09:08:43;77.22;;;36.78;;
23282;SDS011;11810;51.178;3.878;2022-12-05T09:11:11;74.85;;;35.58;;
23282;SDS011;11810;51.178;3.878;2022-12-05T09:13:39;76.88;;;36.15;;
23282;SDS011;11810;51.178;3.878;2022-12-05T09:16:06;73.18;;;34.95;;
23282;SDS011;11810;51.178;3.878;2022-12-05T09:18:42;67.97;;;34.17;;
23282;SDS011;11810;51.178;3.878;2022-12-05T09:21:09;81.43;;;39.78;;
23282;SDS011;11810;51.178;3.878;2022-12-05T09:23:37;77.47;;;38.92;;
23282;SDS011;11810;51.178;3.878;2022-12-05T09:26:03;78.45;;;36.63;;
23282;SDS011;11810;51.178;3.878;2022-12-05T09:28:31;77.88;;;38.13;;
23282;SDS011;11810;51.178;3.878;2022-12-05T09:31:02;82.65;;;38.60;;
23282;SDS011;11810;51.178;3.878;2022-12-05T09:33:31;79.60;;;39.65;;
23282;SDS011;11810;51.178;3.878;2022-12-05T09:36:03;78.03;;;37.58;;
23282;SDS011;11810;51.178;3.878;2022-12-05T09:38:29;74.28;;;36.85;;
23282;SDS011;11810;51.178;3.878;2022-12-05T09:41:01;79.97;;;37.35;;
23282;SDS011;11810;51.178;3.878;2022-12-05T09:44:55;72.30;;;35.28;;
23282;SDS011;11810;51.178;3.878;2022-12-05T09:46:58;71.30;;;34.47;;
23282;SDS011;11810;51.178;3.878;2022-12-05T09:49:28;80.53;;;36.95;;
23282;SDS011;11810;51.178;3.878;2022-12-05T09:51:56;75.85;;;37.28;;
23282;SDS011;11810;51.178;3.878;2022-12-05T09:54:29;78.65;;;41.30;;
23282;SDS011;11810;51.178;3.878;2022-12-05T09:56:56;70.95;;;37.03;;
23282;SDS011;11810;51.178;3.878;2022-12-05T09:59:23;80.13;;;36.28;;
23282;SDS011;11810;51.178;3.878;2022-12-05T10:01:52;69.63;;;33.47;;
23282;SDS011;11810;51.178;3.878;2022-12-05T10:07:02;63.90;;;31.50;;
23282;SDS011;11810;51.178;3.878;2022-12-05T10:18:22;68.43;;;33.78;;
23282;SDS011;11810;51.178;3.878;2022-12-05T10:20:56;70.53;;;32.88;;
23282;SDS011;11810;51.178;3.878;2022-12-05T10:26:15;63.80;;;33.70;;
23282;SDS011;11810;51.178;3.878;2022-12-05T10:31:38;63.90;;;31.90;;
23282;SDS011;11810;51.178;3.878;2022-12-05T10:36:42;69.93;;;32.80;;
23282;SDS011;11810;51.178;3.878;2022-12-05T10:39:18;63.50;;;31.23;;
23282;SDS011;11810;51.178;3.878;2022-12-05T10:41:44;64.25;;;31.42;;
23282;SDS011;11810;51.178;3.878;2022-12-05T10:44:10;64.93;;;33.25;;
23282;SDS011;11810;51.178;3.878;2022-12-05T10:46:36;62.78;;;31.60;;
23282;SDS011;11810;51.178;3.878;2022-12-05T10:49:04;64.22;;;32.97;;
23282;SDS011;11810;51.178;3.878;2022-12-05T10:51:37;57.28;;;31.20;;
23282;SDS011;11810;51.178;3.878;2022-12-05T10:54:19;59.42;;;31.25;;
23282;SDS011;11810;51.178;3.878;2022-12-05T10:56:50;62.05;;;31.70;;
23282;SDS011;11810;51.178;3.878;2022-12-05T10:59:18;63.35;;;33.13;;
23282;SDS011;11810;51.178;3.878;2022-12-05T11:04:20;55.25;;;32.28;;
23282;SDS011;11810;51.178;3.878;2022-12-05T11:08:25;61.55;;;31.95;;
23282;SDS011;11810;51.178;3.878;2022-12-05T11:11:00;55.30;;;32.58;;
23282;SDS011;11810;51.178;3.878;2022-12-05T11:17:46;58.10;;;30.50;;
23282;SDS011;11810;51.178;3.878;2022-12-05T11:22:42;65.85;;;36.38;;
23282;SDS011;11810;51.178;3.878;2022-12-05T11:27:57;60.53;;;33.85;;
23282;SDS011;11810;51.178;3.878;2022-12-05T11:30:25;67.97;;;32.60;;
23282;SDS011;11810;51.178;3.878;2022-12-05T11:35:40;54.78;;;30.35;;
23282;SDS011;11810;51.178;3.878;2022-12-05T11:38:08;58.00;;;30.38;;
23282;SDS011;11810;51.178;3.878;2022-12-05T11:45:57;55.20;;;29.95;;
23282;SDS011;11810;51.178;3.878;2022-12-05T11:57:24;92.03;;;49.53;;
23282;SDS011;11810;51.178;3.878;2022-12-05T12:00:05;88.53;;;51.70;;
23282;SDS011;11810;51.178;3.878;2022-12-05T12:08:22;103.57;;;61.03;;
23282;SDS011;11810;51.178;3.878;2022-12-05T12:16:17;99.18;;;57.45;;
23282;SDS011;11810;51.178;3.878;2022-12-05T12:27:45;94.53;;;56.40;;
23282;SDS011;11810;51.178;3.878;2022-12-05T12:30:34;93.38;;;52.25;;
23282;SDS011;11810;51.178;3.878;2022-12-05T12:33:13;105.80;;;62.00;;
23282;SDS011;11810;51.178;3.878;2022-12-05T12:35:44;98.70;;;59.38;;
23282;SDS011;11810;51.178;3.878;2022-12-05T12:40:58;77.07;;;45.30;;
23282;SDS011;11810;51.178;3.878;2022-12-05T12:46:40;84.22;;;49.88;;
23282;SDS011;11810;51.178;3.878;2022-12-05T12:52:14;65.25;;;38.70;;
23282;SDS011;11810;51.178;3.878;2022-12-05T12:55:02;65.60;;;38.42;;
23282;SDS011;11810;51.178;3.878;2022-12-05T13:09:46;49.33;;;27.73;;
23282;SDS011;11810;51.178;3.878;2022-12-05T13:12:23;50.47;;;29.75;;
23282;SDS011;11810;51.178;3.878;2022-12-05T13:14:59;47.95;;;27.30;;
23282;SDS011;11810;51.178;3.878;2022-12-05T13:17:28;51.83;;;32.42;;
23282;SDS011;11810;51.178;3.878;2022-12-05T13:19:55;48.70;;;27.73;;
23282;SDS011;11810;51.178;3.878;2022-12-05T13:22:22;44.08;;;26.67;;
23282;SDS011;11810;51.178;3.878;2022-12-05T13:24:51;39.47;;;24.70;;
23282;SDS011;11810;51.178;3.878;2022-12-05T13:27:22;40.10;;;22.30;;
23282;SDS011;11810;51.178;3.878;2022-12-05T13:29:55;38.00;;;22.92;;
23282;SDS011;11810;51.178;3.878;2022-12-05T13:37:48;40.63;;;23.45;;
23282;SDS011;11810;51.178;3.878;2022-12-05T13:40:33;39.83;;;23.15;;
23282;SDS011;11810;51.178;3.878;2022-12-05T13:43:23;36.17;;;22.80;;
23282;SDS011;11810;51.178;3.878;2022-12-05T13:46:10;38.58;;;22.23;;
23282;SDS011;11810;51.178;3.878;2022-12-05T13:48:43;36.67;;;22.20;;
23282;SDS011;11810;51.178;3.878;2022-12-05T13:51:35;41.75;;;23.58;;
23282;SDS011;11810;51.178;3.878;2022-12-05T13:54:08;45.17;;;25.38;;
23282;SDS011;11810;51.178;3.878;2022-12-05T13:56:52;47.38;;;25.52;;
23282;SDS011;11810;51.178;3.878;2022-12-05T14:07:40;43.42;;;24.90;;
23282;SDS011;11810;51.178;3.878;2022-12-05T14:10:06;45.42;;;23.98;;
23282;SDS011;11810;51.178;3.878;2022-12-05T14:12:50;39.30;;;22.42;;
23282;SDS011;11810;51.178;3.878;2022-12-05T14:18:00;42.33;;;23.67;;
23282;SDS011;11810;51.178;3.878;2022-12-05T14:30:00;43.10;;;23.65;;
23282;SDS011;11810;51.178;3.878;2022-12-05T14:32:38;44.33;;;23.35;;
23282;SDS011;11810;51.178;3.878;2022-12-05T14:35:17;41.95;;;22.73;;
23282;SDS011;11810;51.178;3.878;2022-12-05T14:37:55;37.63;;;22.85;;
23282;SDS011;11810;51.178;3.878;2022-12-05T14:40:32;38.28;;;22.45;;
23282;SDS011;11810;51.178;3.878;2022-12-05T14:43:04;37.05;;;22.38;;
23282;SDS011;11810;51.178;3.878;2022-12-05T14:45:58;35.70;;;21.80;;
23282;SDS011;11810;51.178;3.878;2022-12-05T14:50:58;37.03;;;22.45;;
23282;SDS011;11810;51.178;3.878;2022-12-05T14:53:26;36.30;;;21.92;;
23282;SDS011;11810;51.178;3.878;2022-12-05T15:01:05;42.35;;;24.17;;
23282;SDS011;11810;51.178;3.878;2022-12-05T15:04:03;39.60;;;22.92;;
23282;SDS011;11810;51.178;3.878;2022-12-05T15:06:36;57.08;;;29.90;;
23282;SDS011;11810;51.178;3.878;2022-12-05T15:09:09;62.80;;;32.85;;
23282;SDS011;11810;51.178;3.878;2022-12-05T15:11:51;65.43;;;33.80;;
23282;SDS011;11810;51.178;3.878;2022-12-05T15:14:22;93.20;;;43.20;;
23282;SDS011;11810;51.178;3.878;2022-12-05T15:16:52;59.40;;;29.98;;
23282;SDS011;11810;51.178;3.878;2022-12-05T15:19:24;75.70;;;37.70;;
23282;SDS011;11810;51.178;3.878;2022-12-05T15:21:55;66.00;;;35.88;;
23282;SDS011;11810;51.178;3.878;2022-12-05T15:24:24;59.72;;;33.13;;
23282;SDS011;11810;51.178;3.878;2022-12-05T15:26:51;52.92;;;28.23;;
23282;SDS011;11810;51.178;3.878;2022-12-05T15:39:55;43.15;;;26.27;;
23282;SDS011;11810;51.178;3.878;2022-12-05T15:42:27;42.55;;;25.13;;
23282;SDS011;11810;51.178;3.878;2022-12-05T15:45:21;32.22;;;17.92;;
23282;SDS011;11810;51.178;3.878;2022-12-05T15:47:50;38.75;;;22.75;;
23282;SDS011;11810;51.178;3.878;2022-12-05T15:50:37;39.53;;;22.98;;
23282;SDS011;11810;51.178;3.878;2022-12-05T15:53:29;40.03;;;22.30;;
23282;SDS011;11810;51.178;3.878;2022-12-05T15:58:37;39.97;;;22.80;;
23282;SDS011;11810;51.178;3.878;2022-12-05T16:00:44;47.20;;;23.95;;
23282;SDS011;11810;51.178;3.878;2022-12-05T16:05:55;51.03;;;26.52;;
23282;SDS011;11810;51.178;3.878;2022-12-05T16:08:25;50.65;;;26.63;;
23282;SDS011;11810;51.178;3.878;2022-12-05T16:11:10;49.30;;;24.73;;
23282;SDS011;11810;51.178;3.878;2022-12-05T16:13:44;44.22;;;22.77;;
23282;SDS011;11810;51.178;3.878;2022-12-05T16:16:14;37.92;;;19.38;;
23282;SDS011;11810;51.178;3.878;2022-12-05T16:18:49;38.53;;;19.70;;
23282;SDS011;11810;51.178;3.878;2022-12-05T16:23:04;31.55;;;17.88;;
23282;SDS011;11810;51.178;3.878;2022-12-05T16:25:47;27.85;;;17.17;;
23282;SDS011;11810;51.178;3.878;2022-12-05T16:28:14;36.05;;;18.50;;
23282;SDS011;11810;51.178;3.878;2022-12-05T16:34:59;34.80;;;19.83;;
23282;SDS011;11810;51.178;3.878;2022-12-05T16:37:25;38.10;;;22.10;;
23282;SDS011;11810;51.178;3.878;2022-12-05T16:39:53;36.42;;;22.73;;
23282;SDS011;11810;51.178;3.878;2022-12-05T16:42:21;40.03;;;24.58;;
23282;SDS011;11810;51.178;3.878;2022-12-05T16:44:59;40.55;;;25.15;;
23282;SDS011;11810;51.178;3.878;2022-12-05T16:52:49;38.53;;;26.10;;
23282;SDS011;11810;51.178;3.878;2022-12-05T16:55:15;49.47;;;29.85;;
23282;SDS011;11810;51.178;3.878;2022-12-05T16:57:41;49.42;;;31.50;;
23282;SDS011;11810;51.178;3.878;2022-12-05T17:00:12;50.90;;;28.85;;
23282;SDS011;11810;51.178;3.878;2022-12-05T17:02:39;48.35;;;28.75;;
23282;SDS011;11810;51.178;3.878;2022-12-05T17:05:10;49.08;;;29.38;;
23282;SDS011;11810;51.178;3.878;2022-12-05T17:07:37;61.33;;;31.90;;
23282;SDS011;11810;51.178;3.878;2022-12-05T17:10:04;57.10;;;32.88;;
23282;SDS011;11810;51.178;3.878;2022-12-05T17:12:30;60.47;;;32.42;;
23282;SDS011;11810;51.178;3.878;2022-12-05T17:14:56;66.28;;;33.00;;
23282;SDS011;11810;51.178;3.878;2022-12-05T17:17:22;62.78;;;33.22;;
23282;SDS011;11810;51.178;3.878;2022-12-05T17:19:48;74.75;;;38.15;;
23282;SDS011;11810;51.178;3.878;2022-12-05T17:22:14;70.05;;;37.67;;
23282;SDS011;11810;51.178;3.878;2022-12-05T17:24:41;60.28;;;34.95;;
23282;SDS011;11810;51.178;3.878;2022-12-05T17:27:08;51.22;;;32.33;;
23282;SDS011;11810;51.178;3.878;2022-12-05T17:29:36;40.72;;;26.25;;
23282;SDS011;11810;51.178;3.878;2022-12-05T17:32:02;41.25;;;24.67;;
23282;SDS011;11810;51.178;3.878;2022-12-05T17:34:28;41.78;;;23.98;;
23282;SDS011;11810;51.178;3.878;2022-12-05T17:36:54;36.17;;;21.50;;
23282;SDS011;11810;51.178;3.878;2022-12-05T17:39:20;34.28;;;20.23;;
23282;SDS011;11810;51.178;3.878;2022-12-05T17:41:46;40.20;;;21.77;;
23282;SDS011;11810;51.178;3.878;2022-12-05T17:44:12;29.02;;;18.33;;
23282;SDS011;11810;51.178;3.878;2022-12-05T17:46:39;40.30;;;22.05;;
23282;SDS011;11810;51.178;3.878;2022-12-05T17:49:11;41.47;;;21.40;;
23282;SDS011;11810;51.178;3.878;2022-12-05T17:51:38;39.63;;;20.58;;
23282;SDS011;11810;51.178;3.878;2022-12-05T17:54:05;41.88;;;19.88;;
23282;SDS011;11810;51.178;3.878;2022-12-05T17:56:31;37.67;;;20.13;;
23282;SDS011;11810;51.178;3.878;2022-12-05T17:58:57;39.53;;;19.00;;
23282;SDS011;11810;51.178;3.878;2022-12-05T18:01:23;43.60;;;20.75;;
23282;SDS011;11810;51.178;3.878;2022-12-05T18:03:49;43.83;;;21.52;;
23282;SDS011;11810;51.178;3.878;2022-12-05T18:07:11;40.63;;;22.35;;
23282;SDS011;11810;51.178;3.878;2022-12-05T18:09:37;39.75;;;20.73;;
23282;SDS011;11810;51.178;3.878;2022-12-05T18:12:03;38.83;;;20.88;;
23282;SDS011;11810;51.178;3.878;2022-12-05T18:14:29;39.45;;;19.23;;
23282;SDS011;11810;51.178;3.878;2022-12-05T18:16:59;36.85;;;19.52;;
23282;SDS011;11810;51.178;3.878;2022-12-05T18:19:26;33.05;;;18.15;;
23282;SDS011;11810;51.178;3.878;2022-12-05T18:21:52;39.95;;;19.17;;
23282;SDS011;11810;51.178;3.878;2022-12-05T18:24:18;37.22;;;19.15;;
23282;SDS011;11810;51.178;3.878;2022-12-05T18:26:44;43.10;;;19.08;;